sensor_id;sensor_type;location;lat;lon;timestamp;P1;durP1;ratioP1;P2;durP2;ratioP2
63050;SDS011;49136;47.416;19.402;2022-10-22T00:02:24;13.10;;;6.07;;
63050;SDS011;49136;47.416;19.402;2022-10-22T00:04:51;10.18;;;5.78;;
63050;SDS011;49136;47.416;19.402;2022-10-22T00:07:18;18.10;;;6.03;;
63050;SDS011;49136;47.416;19.402;2022-10-22T00:09:44;12.45;;;4.95;;
63050;SDS011;49136;47.416;19.402;2022-10-22T00:12:10;10.20;;;5.70;;
63050;SDS011;49136;47.416;19.402;2022-10-22T00:14:36;14.30;;;5.35;;
63050;SDS011;49136;47.416;19.402;2022-10-22T00:17:03;15.48;;;5.50;;
63050;SDS011;49136;47.416;19.402;2022-10-22T00:19:29;10.85;;;5.07;;
63050;SDS011;49136;47.416;19.402;2022-10-22T00:21:54;10.35;;;5.55;;
63050;SDS011;49136;47.416;19.402;2022-10-22T00:24:20;15.50;;;5.68;;
63050;SDS011;49136;47.416;19.402;2022-10-22T00:26:45;10.40;;;5.50;;
63050;SDS011;49136;47.416;19.402;2022-10-22T00:29:11;10.63;;;4.55;;
63050;SDS011;49136;47.416;19.402;2022-10-22T00:31:37;12.80;;;6.10;;
63050;SDS011;49136;47.416;19.402;2022-10-22T00:34:02;10.93;;;4.57;;
63050;SDS011;49136;47.416;19.402;2022-10-22T00:36:28;13.27;;;5.72;;
63050;SDS011;49136;47.416;19.402;2022-10-22T00:38:53;16.25;;;5.38;;
63050;SDS011;49136;47.416;19.402;2022-10-22T00:41:19;9.73;;;4.85;;
63050;SDS011;49136;47.416;19.402;2022-10-22T00:43:58;13.68;;;5.68;;
63050;SDS011;49136;47.416;19.402;2022-10-22T00:46:26;12.38;;;4.80;;
63050;SDS011;49136;47.416;19.402;2022-10-22T00:48:52;9.18;;;4.35;;
63050;SDS011;49136;47.416;19.402;2022-10-22T00:51:20;12.02;;;5.18;;
63050;SDS011;49136;47.416;19.402;2022-10-22T00:53:49;11.23;;;5.50;;
63050;SDS011;49136;47.416;19.402;2022-10-22T00:56:25;13.68;;;5.10;;
63050;SDS011;49136;47.416;19.402;2022-10-22T00:58:51;12.40;;;4.30;;
63050;SDS011;49136;47.416;19.402;2022-10-22T01:01:20;16.58;;;5.80;;
63050;SDS011;49136;47.416;19.402;2022-10-22T01:03:49;12.77;;;5.30;;
63050;SDS011;49136;47.416;19.402;2022-10-22T01:06:18;12.05;;;5.05;;
63050;SDS011;49136;47.416;19.402;2022-10-22T01:11:41;7.93;;;4.75;;
63050;SDS011;49136;47.416;19.402;2022-10-22T01:22:00;10.07;;;5.50;;
63050;SDS011;49136;47.416;19.402;2022-10-22T01:30:19;14.18;;;5.18;;
63050;SDS011;49136;47.416;19.402;2022-10-22T01:32:40;13.73;;;5.45;;
63050;SDS011;49136;47.416;19.402;2022-10-22T01:35:11;11.10;;;5.43;;
63050;SDS011;49136;47.416;19.402;2022-10-22T01:37:45;12.55;;;5.55;;
63050;SDS011;49136;47.416;19.402;2022-10-22T01:40:13;8.32;;;4.30;;
63050;SDS011;49136;47.416;19.402;2022-10-22T01:42:40;13.52;;;5.70;;
63050;SDS011;49136;47.416;19.402;2022-10-22T01:45:09;12.98;;;5.25;;
63050;SDS011;49136;47.416;19.402;2022-10-22T02:01:12;9.13;;;4.68;;
63050;SDS011;49136;47.416;19.402;2022-10-22T02:04:05;9.32;;;4.28;;
63050;SDS011;49136;47.416;19.402;2022-10-22T02:07:01;14.82;;;5.90;;
63050;SDS011;49136;47.416;19.402;2022-10-22T02:09:30;11.68;;;4.78;;
63050;SDS011;49136;47.416;19.402;2022-10-22T02:11:57;11.10;;;4.88;;
63050;SDS011;49136;47.416;19.402;2022-10-22T02:14:25;14.48;;;5.32;;
63050;SDS011;49136;47.416;19.402;2022-10-22T02:16:53;8.30;;;5.05;;
63050;SDS011;49136;47.416;19.402;2022-10-22T02:22:10;9.85;;;4.82;;
63050;SDS011;49136;47.416;19.402;2022-10-22T02:24:35;13.23;;;5.93;;
63050;SDS011;49136;47.416;19.402;2022-10-22T02:29:37;15.00;;;5.57;;
63050;SDS011;49136;47.416;19.402;2022-10-22T02:32:07;12.65;;;5.20;;
63050;SDS011;49136;47.416;19.402;2022-10-22T02:34:35;11.45;;;4.85;;
63050;SDS011;49136;47.416;19.402;2022-10-22T02:37:01;13.45;;;6.38;;
63050;SDS011;49136;47.416;19.402;2022-10-22T02:39:28;15.57;;;5.85;;
63050;SDS011;49136;47.416;19.402;2022-10-22T02:41:54;9.10;;;4.35;;
63050;SDS011;49136;47.416;19.402;2022-10-22T02:44:22;13.35;;;5.47;;
63050;SDS011;49136;47.416;19.402;2022-10-22T02:46:47;10.10;;;4.25;;
63050;SDS011;49136;47.416;19.402;2022-10-22T02:49:13;12.05;;;5.28;;
63050;SDS011;49136;47.416;19.402;2022-10-22T02:51:38;9.15;;;4.45;;
63050;SDS011;49136;47.416;19.402;2022-10-22T02:54:04;9.40;;;4.65;;
63050;SDS011;49136;47.416;19.402;2022-10-22T02:56:30;14.55;;;5.40;;
63050;SDS011;49136;47.416;19.402;2022-10-22T02:58:55;12.02;;;4.43;;
63050;SDS011;49136;47.416;19.402;2022-10-22T03:01:20;9.65;;;5.10;;
63050;SDS011;49136;47.416;19.402;2022-10-22T03:03:46;9.65;;;4.70;;
63050;SDS011;49136;47.416;19.402;2022-10-22T03:06:11;9.38;;;5.07;;
63050;SDS011;49136;47.416;19.402;2022-10-22T03:08:37;14.27;;;5.10;;
63050;SDS011;49136;47.416;19.402;2022-10-22T03:11:02;15.15;;;5.10;;
63050;SDS011;49136;47.416;19.402;2022-10-22T03:13:27;8.93;;;4.75;;
63050;SDS011;49136;47.416;19.402;2022-10-22T03:15:53;13.02;;;5.20;;
63050;SDS011;49136;47.416;19.402;2022-10-22T03:18:18;15.57;;;5.05;;
63050;SDS011;49136;47.416;19.402;2022-10-22T03:20:44;13.18;;;5.07;;
63050;SDS011;49136;47.416;19.402;2022-10-22T03:23:10;10.23;;;5.13;;
63050;SDS011;49136;47.416;19.402;2022-10-22T03:25:39;11.60;;;5.25;;
63050;SDS011;49136;47.416;19.402;2022-10-22T03:28:07;12.38;;;5.95;;
63050;SDS011;49136;47.416;19.402;2022-10-22T03:30:34;12.20;;;5.30;;
63050;SDS011;49136;47.416;19.402;2022-10-22T03:33:00;10.82;;;5.47;;
63050;SDS011;49136;47.416;19.402;2022-10-22T03:35:26;16.05;;;5.50;;
63050;SDS011;49136;47.416;19.402;2022-10-22T03:37:51;9.27;;;4.78;;
63050;SDS011;49136;47.416;19.402;2022-10-22T03:40:17;12.02;;;4.75;;
63050;SDS011;49136;47.416;19.402;2022-10-22T03:42:43;9.68;;;4.82;;
63050;SDS011;49136;47.416;19.402;2022-10-22T03:45:09;10.07;;;5.05;;
63050;SDS011;49136;47.416;19.402;2022-10-22T03:47:34;11.40;;;5.13;;
63050;SDS011;49136;47.416;19.402;2022-10-22T03:50:01;16.13;;;6.72;;
63050;SDS011;49136;47.416;19.402;2022-10-22T03:52:34;11.13;;;5.72;;
63050;SDS011;49136;47.416;19.402;2022-10-22T03:55:00;14.07;;;6.82;;
63050;SDS011;49136;47.416;19.402;2022-10-22T03:57:25;16.10;;;6.15;;
63050;SDS011;49136;47.416;19.402;2022-10-22T03:59:51;17.38;;;5.85;;
63050;SDS011;49136;47.416;19.402;2022-10-22T04:02:16;21.45;;;6.65;;
63050;SDS011;49136;47.416;19.402;2022-10-22T04:04:41;13.25;;;6.15;;
63050;SDS011;49136;47.416;19.402;2022-10-22T04:07:07;20.13;;;5.38;;
63050;SDS011;49136;47.416;19.402;2022-10-22T04:09:33;13.73;;;5.38;;
63050;SDS011;49136;47.416;19.402;2022-10-22T04:11:58;13.32;;;5.57;;
63050;SDS011;49136;47.416;19.402;2022-10-22T04:14:25;10.60;;;4.57;;
63050;SDS011;49136;47.416;19.402;2022-10-22T04:16:50;11.20;;;5.10;;
63050;SDS011;49136;47.416;19.402;2022-10-22T04:19:15;12.73;;;5.28;;
63050;SDS011;49136;47.416;19.402;2022-10-22T04:21:41;17.90;;;6.05;;
63050;SDS011;49136;47.416;19.402;2022-10-22T04:24:07;10.90;;;5.18;;
63050;SDS011;49136;47.416;19.402;2022-10-22T04:26:32;14.65;;;5.57;;
63050;SDS011;49136;47.416;19.402;2022-10-22T04:28:57;10.40;;;4.35;;
63050;SDS011;49136;47.416;19.402;2022-10-22T04:31:23;12.65;;;5.82;;
63050;SDS011;49136;47.416;19.402;2022-10-22T04:33:53;22.80;;;7.10;;
63050;SDS011;49136;47.416;19.402;2022-10-22T04:36:21;20.77;;;6.32;;
63050;SDS011;49136;47.416;19.402;2022-10-22T04:38:50;11.27;;;6.05;;
63050;SDS011;49136;47.416;19.402;2022-10-22T04:41:18;10.07;;;5.60;;
63050;SDS011;49136;47.416;19.402;2022-10-22T04:43:46;17.85;;;7.05;;
63050;SDS011;49136;47.416;19.402;2022-10-22T04:46:12;11.90;;;5.93;;
63050;SDS011;49136;47.416;19.402;2022-10-22T04:48:40;12.75;;;6.45;;
63050;SDS011;49136;47.416;19.402;2022-10-22T04:51:07;16.23;;;7.93;;
63050;SDS011;49136;47.416;19.402;2022-10-22T04:53:34;8.52;;;5.60;;
63050;SDS011;49136;47.416;19.402;2022-10-22T04:58:56;9.15;;;5.13;;
63050;SDS011;49136;47.416;19.402;2022-10-22T05:01:30;16.65;;;7.20;;
63050;SDS011;49136;47.416;19.402;2022-10-22T05:04:03;10.63;;;5.93;;
63050;SDS011;49136;47.416;19.402;2022-10-22T05:06:31;10.90;;;5.72;;
63050;SDS011;49136;47.416;19.402;2022-10-22T05:09:02;22.95;;;6.80;;
63050;SDS011;49136;47.416;19.402;2022-10-22T05:11:31;15.07;;;5.38;;
63050;SDS011;49136;47.416;19.402;2022-10-22T05:13:59;14.02;;;6.35;;
63050;SDS011;49136;47.416;19.402;2022-10-22T05:16:26;17.20;;;5.90;;
63050;SDS011;49136;47.416;19.402;2022-10-22T05:18:53;11.13;;;5.70;;
63050;SDS011;49136;47.416;19.402;2022-10-22T05:21:19;10.70;;;5.72;;
63050;SDS011;49136;47.416;19.402;2022-10-22T05:23:45;10.65;;;5.22;;
63050;SDS011;49136;47.416;19.402;2022-10-22T05:26:12;9.50;;;5.70;;
63050;SDS011;49136;47.416;19.402;2022-10-22T05:28:39;14.20;;;6.47;;
63050;SDS011;49136;47.416;19.402;2022-10-22T05:31:06;12.25;;;5.85;;
63050;SDS011;49136;47.416;19.402;2022-10-22T05:33:32;10.68;;;4.68;;
63050;SDS011;49136;47.416;19.402;2022-10-22T05:35:59;18.38;;;7.18;;
63050;SDS011;49136;47.416;19.402;2022-10-22T05:38:25;17.90;;;6.93;;
63050;SDS011;49136;47.416;19.402;2022-10-22T05:43:26;18.23;;;7.00;;
63050;SDS011;49136;47.416;19.402;2022-10-22T05:45:52;19.85;;;6.22;;
63050;SDS011;49136;47.416;19.402;2022-10-22T05:48:18;15.55;;;6.85;;
63050;SDS011;49136;47.416;19.402;2022-10-22T05:50:43;14.20;;;6.93;;
63050;SDS011;49136;47.416;19.402;2022-10-22T05:53:10;20.75;;;7.75;;
63050;SDS011;49136;47.416;19.402;2022-10-22T05:55:35;24.50;;;8.23;;
63050;SDS011;49136;47.416;19.402;2022-10-22T05:58:03;28.45;;;8.85;;
63050;SDS011;49136;47.416;19.402;2022-10-22T06:00:29;23.00;;;7.43;;
63050;SDS011;49136;47.416;19.402;2022-10-22T06:02:54;26.63;;;8.93;;
63050;SDS011;49136;47.416;19.402;2022-10-22T06:05:19;25.95;;;8.05;;
63050;SDS011;49136;47.416;19.402;2022-10-22T06:07:45;21.75;;;6.90;;
63050;SDS011;49136;47.416;19.402;2022-10-22T06:10:14;20.60;;;8.55;;
63050;SDS011;49136;47.416;19.402;2022-10-22T06:12:42;23.08;;;7.15;;
63050;SDS011;49136;47.416;19.402;2022-10-22T06:15:13;20.00;;;8.43;;
63050;SDS011;49136;47.416;19.402;2022-10-22T06:17:40;24.42;;;8.05;;
63050;SDS011;49136;47.416;19.402;2022-10-22T06:20:06;14.27;;;7.10;;
63050;SDS011;49136;47.416;19.402;2022-10-22T06:22:32;28.77;;;8.27;;
63050;SDS011;49136;47.416;19.402;2022-10-22T06:24:57;26.98;;;7.57;;
63050;SDS011;49136;47.416;19.402;2022-10-22T06:27:22;27.85;;;10.35;;
63050;SDS011;49136;47.416;19.402;2022-10-22T06:29:48;33.92;;;8.20;;
63050;SDS011;49136;47.416;19.402;2022-10-22T06:32:13;22.45;;;8.00;;
63050;SDS011;49136;47.416;19.402;2022-10-22T06:34:38;20.27;;;7.75;;
63050;SDS011;49136;47.416;19.402;2022-10-22T06:37:04;20.58;;;7.82;;
63050;SDS011;49136;47.416;19.402;2022-10-22T06:39:29;19.23;;;7.57;;
63050;SDS011;49136;47.416;19.402;2022-10-22T06:41:55;19.23;;;7.45;;
63050;SDS011;49136;47.416;19.402;2022-10-22T06:44:20;21.48;;;8.60;;
63050;SDS011;49136;47.416;19.402;2022-10-22T06:46:49;26.75;;;7.53;;
63050;SDS011;49136;47.416;19.402;2022-10-22T06:49:16;20.10;;;7.70;;
63050;SDS011;49136;47.416;19.402;2022-10-22T06:51:42;17.23;;;6.72;;
63050;SDS011;49136;47.416;19.402;2022-10-22T06:54:08;15.80;;;7.40;;
63050;SDS011;49136;47.416;19.402;2022-10-22T06:56:33;16.13;;;6.78;;
63050;SDS011;49136;47.416;19.402;2022-10-22T06:58:59;14.10;;;6.65;;
63050;SDS011;49136;47.416;19.402;2022-10-22T07:01:29;17.55;;;7.55;;
63050;SDS011;49136;47.416;19.402;2022-10-22T07:03:56;17.90;;;6.50;;
63050;SDS011;49136;47.416;19.402;2022-10-22T07:06:22;14.60;;;6.10;;
63050;SDS011;49136;47.416;19.402;2022-10-22T07:08:48;24.70;;;6.57;;
63050;SDS011;49136;47.416;19.402;2022-10-22T07:11:18;22.48;;;7.65;;
63050;SDS011;49136;47.416;19.402;2022-10-22T07:13:46;14.90;;;6.82;;
63050;SDS011;49136;47.416;19.402;2022-10-22T07:16:12;12.35;;;6.30;;
63050;SDS011;49136;47.416;19.402;2022-10-22T07:18:38;15.38;;;7.55;;
63050;SDS011;49136;47.416;19.402;2022-10-22T07:21:05;26.23;;;8.35;;
63050;SDS011;49136;47.416;19.402;2022-10-22T07:23:32;19.95;;;7.88;;
63050;SDS011;49136;47.416;19.402;2022-10-22T07:25:57;13.48;;;7.18;;
63050;SDS011;49136;47.416;19.402;2022-10-22T07:28:23;19.75;;;8.52;;
63050;SDS011;49136;47.416;19.402;2022-10-22T07:30:49;21.88;;;7.43;;
63050;SDS011;49136;47.416;19.402;2022-10-22T07:33:14;13.63;;;7.35;;
63050;SDS011;49136;47.416;19.402;2022-10-22T07:35:39;19.95;;;7.45;;
63050;SDS011;49136;47.416;19.402;2022-10-22T07:38:05;15.50;;;7.47;;
63050;SDS011;49136;47.416;19.402;2022-10-22T07:40:31;16.90;;;7.15;;
63050;SDS011;49136;47.416;19.402;2022-10-22T07:42:57;19.90;;;8.20;;
63050;SDS011;49136;47.416;19.402;2022-10-22T07:45:23;13.77;;;6.85;;
63050;SDS011;49136;47.416;19.402;2022-10-22T07:47:48;17.80;;;7.35;;
63050;SDS011;49136;47.416;19.402;2022-10-22T07:50:14;19.60;;;7.30;;
63050;SDS011;49136;47.416;19.402;2022-10-22T07:52:40;18.65;;;7.07;;
63050;SDS011;49136;47.416;19.402;2022-10-22T07:55:05;33.03;;;6.63;;
63050;SDS011;49136;47.416;19.402;2022-10-22T07:57:31;18.70;;;7.47;;
63050;SDS011;49136;47.416;19.402;2022-10-22T07:59:56;13.35;;;7.05;;
63050;SDS011;49136;47.416;19.402;2022-10-22T08:02:22;16.13;;;7.07;;
63050;SDS011;49136;47.416;19.402;2022-10-22T08:04:48;16.13;;;6.07;;
63050;SDS011;49136;47.416;19.402;2022-10-22T08:07:14;13.57;;;6.25;;
63050;SDS011;49136;47.416;19.402;2022-10-22T08:09:39;13.45;;;7.00;;
63050;SDS011;49136;47.416;19.402;2022-10-22T08:12:05;17.67;;;7.63;;
63050;SDS011;49136;47.416;19.402;2022-10-22T08:14:31;17.63;;;6.57;;
63050;SDS011;49136;47.416;19.402;2022-10-22T08:16:56;13.35;;;7.20;;
63050;SDS011;49136;47.416;19.402;2022-10-22T08:19:22;16.17;;;6.80;;
63050;SDS011;49136;47.416;19.402;2022-10-22T08:21:47;15.43;;;7.82;;
63050;SDS011;49136;47.416;19.402;2022-10-22T08:24:13;19.63;;;6.63;;
63050;SDS011;49136;47.416;19.402;2022-10-22T08:26:39;20.55;;;7.78;;
63050;SDS011;49136;47.416;19.402;2022-10-22T08:29:05;18.88;;;8.02;;
63050;SDS011;49136;47.416;19.402;2022-10-22T08:31:30;15.23;;;7.40;;
63050;SDS011;49136;47.416;19.402;2022-10-22T08:33:56;16.02;;;7.57;;
63050;SDS011;49136;47.416;19.402;2022-10-22T08:36:21;13.43;;;7.00;;
63050;SDS011;49136;47.416;19.402;2022-10-22T08:38:46;15.65;;;7.57;;
63050;SDS011;49136;47.416;19.402;2022-10-22T08:41:16;15.90;;;7.18;;
63050;SDS011;49136;47.416;19.402;2022-10-22T08:48:52;14.90;;;7.25;;
63050;SDS011;49136;47.416;19.402;2022-10-22T08:51:20;14.35;;;7.57;;
63050;SDS011;49136;47.416;19.402;2022-10-22T08:56:40;13.98;;;7.25;;
63050;SDS011;49136;47.416;19.402;2022-10-22T09:01:50;22.42;;;8.05;;
63050;SDS011;49136;47.416;19.402;2022-10-22T09:06:50;17.33;;;7.68;;
63050;SDS011;49136;47.416;19.402;2022-10-22T09:09:18;21.67;;;7.70;;
63050;SDS011;49136;47.416;19.402;2022-10-22T09:11:48;16.23;;;8.00;;
63050;SDS011;49136;47.416;19.402;2022-10-22T09:14:17;16.10;;;7.53;;
63050;SDS011;49136;47.416;19.402;2022-10-22T09:16:51;14.13;;;7.50;;
63050;SDS011;49136;47.416;19.402;2022-10-22T09:24:55;13.38;;;7.72;;
63050;SDS011;49136;47.416;19.402;2022-10-22T09:27:26;14.90;;;7.55;;
63050;SDS011;49136;47.416;19.402;2022-10-22T09:29:53;15.13;;;7.25;;
63050;SDS011;49136;47.416;19.402;2022-10-22T09:32:18;18.92;;;9.07;;
63050;SDS011;49136;47.416;19.402;2022-10-22T09:34:45;17.13;;;7.93;;
63050;SDS011;49136;47.416;19.402;2022-10-22T09:37:12;22.33;;;8.98;;
63050;SDS011;49136;47.416;19.402;2022-10-22T09:39:46;17.98;;;7.95;;
63050;SDS011;49136;47.416;19.402;2022-10-22T09:42:15;16.55;;;8.38;;
63050;SDS011;49136;47.416;19.402;2022-10-22T09:44:42;14.63;;;8.80;;
63050;SDS011;49136;47.416;19.402;2022-10-22T09:50:18;21.05;;;8.10;;
63050;SDS011;49136;47.416;19.402;2022-10-22T09:55:51;14.75;;;7.85;;
63050;SDS011;49136;47.416;19.402;2022-10-22T09:58:18;13.20;;;7.18;;
63050;SDS011;49136;47.416;19.402;2022-10-22T10:00:45;18.23;;;7.75;;
63050;SDS011;49136;47.416;19.402;2022-10-22T10:03:17;18.73;;;8.30;;
63050;SDS011;49136;47.416;19.402;2022-10-22T10:05:46;20.70;;;8.65;;
63050;SDS011;49136;47.416;19.402;2022-10-22T10:08:14;17.75;;;8.07;;
63050;SDS011;49136;47.416;19.402;2022-10-22T10:15:39;19.85;;;8.70;;
63050;SDS011;49136;47.416;19.402;2022-10-22T10:23:30;12.50;;;6.50;;
63050;SDS011;49136;47.416;19.402;2022-10-22T10:29:10;23.23;;;9.43;;
63050;SDS011;49136;47.416;19.402;2022-10-22T10:37:10;23.70;;;9.20;;
63050;SDS011;49136;47.416;19.402;2022-10-22T10:48:13;25.92;;;8.93;;
63050;SDS011;49136;47.416;19.402;2022-10-22T11:07:47;19.10;;;8.05;;
63050;SDS011;49136;47.416;19.402;2022-10-22T11:10:28;19.33;;;8.50;;
63050;SDS011;49136;47.416;19.402;2022-10-22T11:13:00;16.05;;;8.70;;
63050;SDS011;49136;47.416;19.402;2022-10-22T11:15:33;20.65;;;9.07;;
63050;SDS011;49136;47.416;19.402;2022-10-22T11:18:23;17.13;;;8.77;;
63050;SDS011;49136;47.416;19.402;2022-10-22T11:20:56;16.58;;;8.23;;
63050;SDS011;49136;47.416;19.402;2022-10-22T11:23:50;23.27;;;10.00;;
63050;SDS011;49136;47.416;19.402;2022-10-22T11:29:03;20.20;;;8.75;;
63050;SDS011;49136;47.416;19.402;2022-10-22T11:31:33;20.85;;;9.80;;
63050;SDS011;49136;47.416;19.402;2022-10-22T11:34:43;17.02;;;7.82;;
63050;SDS011;49136;47.416;19.402;2022-10-22T11:36:55;21.25;;;9.40;;
63050;SDS011;49136;47.416;19.402;2022-10-22T11:39:29;18.40;;;9.05;;
63050;SDS011;49136;47.416;19.402;2022-10-22T11:42:20;17.45;;;9.25;;
63050;SDS011;49136;47.416;19.402;2022-10-22T11:44:59;17.17;;;8.52;;
63050;SDS011;49136;47.416;19.402;2022-10-22T11:47:33;19.48;;;9.15;;
63050;SDS011;49136;47.416;19.402;2022-10-22T11:50:21;16.27;;;8.57;;
63050;SDS011;49136;47.416;19.402;2022-10-22T11:53:04;16.20;;;8.43;;
63050;SDS011;49136;47.416;19.402;2022-10-22T12:00:53;18.50;;;9.80;;
63050;SDS011;49136;47.416;19.402;2022-10-22T12:03:42;20.98;;;9.07;;
63050;SDS011;49136;47.416;19.402;2022-10-22T12:14:02;22.20;;;9.35;;
63050;SDS011;49136;47.416;19.402;2022-10-22T12:16:39;18.63;;;8.13;;
63050;SDS011;49136;47.416;19.402;2022-10-22T12:19:15;32.53;;;9.00;;
63050;SDS011;49136;47.416;19.402;2022-10-22T12:21:44;16.40;;;8.80;;
63050;SDS011;49136;47.416;19.402;2022-10-22T12:24:13;22.13;;;7.82;;
63050;SDS011;49136;47.416;19.402;2022-10-22T12:26:41;16.08;;;8.65;;
63050;SDS011;49136;47.416;19.402;2022-10-22T12:29:11;20.95;;;8.52;;
63050;SDS011;49136;47.416;19.402;2022-10-22T12:31:39;19.23;;;8.82;;
63050;SDS011;49136;47.416;19.402;2022-10-22T12:34:06;16.80;;;8.15;;
63050;SDS011;49136;47.416;19.402;2022-10-22T12:36:32;19.55;;;8.20;;
63050;SDS011;49136;47.416;19.402;2022-10-22T12:38:59;16.38;;;8.20;;
63050;SDS011;49136;47.416;19.402;2022-10-22T12:41:32;13.48;;;7.22;;
63050;SDS011;49136;47.416;19.402;2022-10-22T12:44:00;16.02;;;7.32;;
63050;SDS011;49136;47.416;19.402;2022-10-22T12:46:27;20.88;;;7.03;;
63050;SDS011;49136;47.416;19.402;2022-10-22T12:48:57;12.20;;;7.10;;
63050;SDS011;49136;47.416;19.402;2022-10-22T12:51:24;16.40;;;7.88;;
63050;SDS011;49136;47.416;19.402;2022-10-22T12:53:53;15.82;;;7.65;;
63050;SDS011;49136;47.416;19.402;2022-10-22T12:56:22;14.75;;;7.57;;
63050;SDS011;49136;47.416;19.402;2022-10-22T12:58:51;14.77;;;7.65;;
63050;SDS011;49136;47.416;19.402;2022-10-22T13:01:20;20.90;;;8.05;;
63050;SDS011;49136;47.416;19.402;2022-10-22T13:03:49;23.55;;;8.93;;
63050;SDS011;49136;47.416;19.402;2022-10-22T13:06:27;18.90;;;8.50;;
63050;SDS011;49136;47.416;19.402;2022-10-22T13:14:19;15.55;;;8.23;;
63050;SDS011;49136;47.416;19.402;2022-10-22T13:24:52;21.73;;;9.52;;
63050;SDS011;49136;47.416;19.402;2022-10-22T13:27:20;18.33;;;8.63;;
63050;SDS011;49136;47.416;19.402;2022-10-22T13:29:45;15.48;;;8.18;;
63050;SDS011;49136;47.416;19.402;2022-10-22T13:35:06;15.88;;;7.72;;
63050;SDS011;49136;47.416;19.402;2022-10-22T13:37:36;15.05;;;7.35;;
63050;SDS011;49136;47.416;19.402;2022-10-22T13:40:07;16.42;;;8.02;;
63050;SDS011;49136;47.416;19.402;2022-10-22T13:42:36;15.77;;;7.95;;
63050;SDS011;49136;47.416;19.402;2022-10-22T13:45:03;17.60;;;7.68;;
63050;SDS011;49136;47.416;19.402;2022-10-22T13:47:28;11.20;;;6.97;;
63050;SDS011;49136;47.416;19.402;2022-10-22T13:49:55;15.00;;;8.23;;
63050;SDS011;49136;47.416;19.402;2022-10-22T13:52:33;14.52;;;7.90;;
63050;SDS011;49136;47.416;19.402;2022-10-22T13:55:11;20.42;;;8.95;;
63050;SDS011;49136;47.416;19.402;2022-10-22T13:57:38;20.63;;;8.88;;
63050;SDS011;49136;47.416;19.402;2022-10-22T14:00:03;17.33;;;8.60;;
63050;SDS011;49136;47.416;19.402;2022-10-22T14:02:29;19.35;;;10.75;;
63050;SDS011;49136;47.416;19.402;2022-10-22T14:04:55;23.33;;;12.70;;
63050;SDS011;49136;47.416;19.402;2022-10-22T14:07:26;22.75;;;11.40;;
63050;SDS011;49136;47.416;19.402;2022-10-22T14:09:52;21.25;;;10.88;;
63050;SDS011;49136;47.416;19.402;2022-10-22T14:12:17;20.95;;;10.35;;
63050;SDS011;49136;47.416;19.402;2022-10-22T14:14:43;22.83;;;10.05;;
63050;SDS011;49136;47.416;19.402;2022-10-22T14:17:10;30.50;;;11.25;;
63050;SDS011;49136;47.416;19.402;2022-10-22T14:19:41;33.63;;;13.38;;
63050;SDS011;49136;47.416;19.402;2022-10-22T14:22:20;37.03;;;13.75;;
63050;SDS011;49136;47.416;19.402;2022-10-22T14:24:49;38.00;;;13.50;;
63050;SDS011;49136;47.416;19.402;2022-10-22T14:27:15;38.33;;;12.48;;
63050;SDS011;49136;47.416;19.402;2022-10-22T14:29:41;23.60;;;12.13;;
63050;SDS011;49136;47.416;19.402;2022-10-22T14:32:14;27.83;;;10.88;;
63050;SDS011;49136;47.416;19.402;2022-10-22T14:34:43;19.38;;;9.57;;
63050;SDS011;49136;47.416;19.402;2022-10-22T14:37:15;17.50;;;10.15;;
63050;SDS011;49136;47.416;19.402;2022-10-22T14:39:44;20.00;;;9.70;;
63050;SDS011;49136;47.416;19.402;2022-10-22T14:42:15;21.58;;;9.23;;
63050;SDS011;49136;47.416;19.402;2022-10-22T14:44:41;24.58;;;11.40;;
63050;SDS011;49136;47.416;19.402;2022-10-22T14:47:07;25.58;;;11.20;;
63050;SDS011;49136;47.416;19.402;2022-10-22T14:49:32;26.15;;;10.57;;
63050;SDS011;49136;47.416;19.402;2022-10-22T14:51:58;24.38;;;11.63;;
63050;SDS011;49136;47.416;19.402;2022-10-22T14:54:23;23.40;;;11.32;;
63050;SDS011;49136;47.416;19.402;2022-10-22T14:56:49;24.00;;;11.93;;
63050;SDS011;49136;47.416;19.402;2022-10-22T14:59:14;28.52;;;12.80;;
63050;SDS011;49136;47.416;19.402;2022-10-22T15:01:40;26.58;;;12.00;;
63050;SDS011;49136;47.416;19.402;2022-10-22T15:04:06;29.55;;;12.65;;
63050;SDS011;49136;47.416;19.402;2022-10-22T15:06:32;23.42;;;11.80;;
63050;SDS011;49136;47.416;19.402;2022-10-22T15:08:58;26.67;;;12.18;;
63050;SDS011;49136;47.416;19.402;2022-10-22T15:11:23;31.85;;;14.90;;
63050;SDS011;49136;47.416;19.402;2022-10-22T15:13:49;31.58;;;13.30;;
63050;SDS011;49136;47.416;19.402;2022-10-22T15:16:14;26.25;;;12.43;;
63050;SDS011;49136;47.416;19.402;2022-10-22T15:18:40;29.05;;;13.38;;
63050;SDS011;49136;47.416;19.402;2022-10-22T15:21:13;27.30;;;11.68;;
63050;SDS011;49136;47.416;19.402;2022-10-22T15:23:40;33.60;;;14.20;;
63050;SDS011;49136;47.416;19.402;2022-10-22T15:26:06;31.58;;;13.77;;
63050;SDS011;49136;47.416;19.402;2022-10-22T15:28:32;27.50;;;12.98;;
63050;SDS011;49136;47.416;19.402;2022-10-22T15:30:58;29.33;;;14.35;;
63050;SDS011;49136;47.416;19.402;2022-10-22T15:33:25;32.28;;;13.55;;
63050;SDS011;49136;47.416;19.402;2022-10-22T15:35:51;33.30;;;13.65;;
63050;SDS011;49136;47.416;19.402;2022-10-22T15:38:16;31.92;;;13.23;;
63050;SDS011;49136;47.416;19.402;2022-10-22T15:40:42;28.90;;;13.55;;
63050;SDS011;49136;47.416;19.402;2022-10-22T15:43:07;35.97;;;13.80;;
63050;SDS011;49136;47.416;19.402;2022-10-22T15:45:33;29.08;;;12.85;;
63050;SDS011;49136;47.416;19.402;2022-10-22T15:47:59;34.17;;;14.65;;
63050;SDS011;49136;47.416;19.402;2022-10-22T15:50:24;36.53;;;14.95;;
63050;SDS011;49136;47.416;19.402;2022-10-22T15:52:50;26.55;;;14.35;;
63050;SDS011;49136;47.416;19.402;2022-10-22T15:55:16;32.67;;;14.18;;
63050;SDS011;49136;47.416;19.402;2022-10-22T15:57:41;32.85;;;14.02;;
63050;SDS011;49136;47.416;19.402;2022-10-22T16:00:07;36.65;;;13.50;;
63050;SDS011;49136;47.416;19.402;2022-10-22T16:02:33;29.23;;;13.75;;
63050;SDS011;49136;47.416;19.402;2022-10-22T16:04:58;34.10;;;15.40;;
63050;SDS011;49136;47.416;19.402;2022-10-22T16:07:24;44.50;;;14.95;;
63050;SDS011;49136;47.416;19.402;2022-10-22T16:09:53;33.35;;;14.82;;
63050;SDS011;49136;47.416;19.402;2022-10-22T16:12:19;32.40;;;14.93;;
63050;SDS011;49136;47.416;19.402;2022-10-22T16:14:45;32.20;;;15.27;;
63050;SDS011;49136;47.416;19.402;2022-10-22T16:17:10;37.42;;;17.02;;
63050;SDS011;49136;47.416;19.402;2022-10-22T16:19:35;41.38;;;15.93;;
63050;SDS011;49136;47.416;19.402;2022-10-22T16:22:01;46.50;;;19.67;;
63050;SDS011;49136;47.416;19.402;2022-10-22T16:24:27;46.00;;;17.75;;
63050;SDS011;49136;47.416;19.402;2022-10-22T16:26:52;35.85;;;16.65;;
63050;SDS011;49136;47.416;19.402;2022-10-22T16:29:19;39.67;;;18.42;;
63050;SDS011;49136;47.416;19.402;2022-10-22T16:31:44;44.03;;;19.52;;
63050;SDS011;49136;47.416;19.402;2022-10-22T16:34:10;40.22;;;20.20;;
63050;SDS011;49136;47.416;19.402;2022-10-22T16:36:36;37.38;;;18.75;;
63050;SDS011;49136;47.416;19.402;2022-10-22T16:39:02;38.78;;;18.27;;
63050;SDS011;49136;47.416;19.402;2022-10-22T16:41:28;42.50;;;18.33;;
63050;SDS011;49136;47.416;19.402;2022-10-22T16:43:59;42.35;;;18.17;;
63050;SDS011;49136;47.416;19.402;2022-10-22T16:46:27;33.10;;;16.77;;
63050;SDS011;49136;47.416;19.402;2022-10-22T16:48:53;34.45;;;16.48;;